Salt Lake City (SLC/KSLC)

Information

Location
Salt Lake City, UT
Local Time
17:25 / 5:25 pm
GMT Time
00:25 / 12:25 am
Gates
Unassigned
No FAA reported delays
METAR KSLC 222354Z 13009KT 10SM BKN013 OVC060 01/M01 A2979 RMK AO2 SNE21B24E38 SLP096 4/005 P0001 60001 T00111011 10033 20000 58012
TAF KSLC 222341Z 2300/2406 15011KT 6SM -SN BKN015 BKN040 FM230100 17016G26KT 6SM -SN BKN040 FM231600 28010KT 2SM -SN BKN010 OVC020 FM232300 14005KT 5SM -SHSN BKN025 FM240100 15005KT P6SM VCSH BKN050
  • No charts available